createdAt,value
2023-04-13T00:01:01.348Z,8.54
2023-04-13T00:04:06.294Z,8.56
2023-04-13T00:07:20.318Z,8.59
2023-04-13T00:10:24.025Z,8.62
2023-04-13T00:13:32.136Z,8.65
2023-04-13T00:16:50.297Z,8.65
2023-04-13T00:19:57.920Z,8.63
2023-04-13T00:22:57.684Z,8.62
2023-04-13T00:25:51.559Z,8.62
2023-04-13T00:29:12.571Z,8.62
2023-04-13T00:32:19.147Z,8.61
2023-04-13T00:35:43.767Z,8.58
2023-04-13T00:39:00.862Z,8.56
2023-04-13T00:42:08.151Z,8.55
2023-04-13T00:45:34.072Z,8.55
2023-04-13T00:48:56.622Z,8.54
2023-04-13T00:51:53.061Z,8.52
2023-04-13T00:55:20.733Z,8.51
2023-04-13T00:58:27.392Z,8.49
2023-04-13T01:01:20.884Z,8.50
2023-04-13T01:04:37.387Z,8.55
2023-04-13T01:08:09.425Z,8.57
2023-04-13T01:11:12.119Z,8.58
2023-04-13T01:14:35.049Z,8.58
2023-04-13T01:17:46.397Z,8.57
2023-04-13T01:20:50.672Z,8.55
2023-04-13T01:24:24.394Z,8.56
2023-04-13T01:28:07.608Z,8.56
2023-04-13T01:31:15.780Z,8.55
2023-04-13T01:34:21.675Z,8.55
2023-04-13T01:37:19.646Z,8.55
2023-04-13T01:40:45.066Z,8.55
2023-04-13T01:44:03.308Z,8.55
2023-04-13T01:47:30.808Z,8.55
2023-04-13T01:50:52.175Z,8.53
2023-04-13T01:54:27.549Z,8.52
2023-04-13T01:57:24.890Z,8.51
2023-04-13T02:00:36.400Z,8.51
2023-04-13T02:03:49.229Z,8.51
2023-04-13T02:07:04.369Z,8.49
2023-04-13T02:10:16.777Z,8.49
2023-04-13T02:13:53.660Z,8.49
2023-04-13T02:17:11.394Z,8.41
2023-04-13T02:20:40.493Z,8.31
2023-04-13T02:24:12.871Z,8.21
2023-04-13T02:27:48.385Z,8.11
2023-04-13T02:31:09.228Z,8.02
2023-04-13T02:34:35.765Z,7.95
2023-04-13T02:38:04.846Z,7.89
2023-04-13T02:41:23.727Z,7.84
2023-04-13T02:44:51.699Z,7.81
2023-04-13T02:48:28.825Z,7.84
2023-04-13T02:51:48.569Z,7.86
2023-04-13T02:55:15.622Z,7.86
2023-04-13T02:59:00.896Z,7.86
2023-04-13T03:02:15.498Z,7.87
2023-04-13T03:06:04.529Z,7.82
2023-04-13T03:09:40.180Z,7.76
2023-04-13T03:12:56.581Z,7.70
2023-04-13T03:16:23.335Z,7.68
2023-04-13T03:19:52.430Z,7.63
2023-04-13T03:23:26.646Z,7.53
2023-04-13T03:26:59.127Z,7.46
2023-04-13T03:30:25.570Z,7.41
2023-04-13T03:34:02.467Z,7.32
2023-04-13T03:37:43.078Z,7.23
2023-04-13T03:41:35.283Z,7.16
2023-04-13T03:45:06.202Z,7.15
2023-04-13T03:48:31.518Z,7.16
2023-04-13T03:52:20.600Z,7.14
2023-04-13T03:55:55.372Z,7.11
2023-04-13T03:59:35.647Z,7.07
2023-04-13T04:03:15.433Z,7.01
2023-04-13T04:06:49.236Z,6.95
2023-04-13T04:10:22.330Z,6.90
2023-04-13T04:13:51.122Z,6.87
2023-04-13T04:17:18.277Z,6.85
2023-04-13T04:21:07.656Z,6.86
2023-04-13T04:24:45.924Z,6.85
2023-04-13T04:28:02.799Z,6.88
2023-04-13T04:31:01.780Z,6.89
2023-04-13T04:33:42.868Z,6.88
2023-04-13T04:36:44.852Z,6.87
2023-04-13T04:39:38.072Z,6.83
2023-04-13T04:42:30.820Z,6.77
2023-04-13T04:45:33.377Z,6.72
2023-04-13T04:48:34.824Z,6.75
2023-04-13T04:51:24.935Z,6.82
2023-04-13T04:54:18.352Z,6.87
2023-04-13T04:57:07.053Z,6.93
2023-04-13T04:59:57.344Z,7.00
2023-04-13T05:02:51.205Z,7.02
2023-04-13T05:05:47.587Z,7.07
2023-04-13T05:08:44.936Z,7.13
2023-04-13T05:11:41.349Z,7.18
2023-04-13T05:14:52.833Z,7.23
2023-04-13T05:17:42.954Z,7.27
2023-04-13T05:20:30.807Z,7.32
2023-04-13T05:23:29.851Z,7.41
2023-04-13T05:26:20.186Z,7.49
2023-04-13T05:29:16.472Z,7.57
2023-04-13T05:32:12.289Z,7.63
2023-04-13T05:35:07.313Z,7.72
2023-04-13T05:38:21.135Z,7.79
2023-04-13T05:41:00.883Z,7.85
2023-04-13T05:43:52.193Z,7.88
2023-04-13T05:46:36.953Z,7.93
2023-04-13T05:49:23.151Z,7.97
2023-04-13T05:52:07.725Z,8.00
2023-04-13T05:55:08.231Z,8.03
2023-04-13T05:57:53.301Z,8.06
2023-04-13T06:00:39.086Z,8.10
2023-04-13T06:03:29.084Z,8.12
2023-04-13T06:06:18.950Z,8.15
2023-04-13T06:09:09.037Z,8.15
2023-04-13T06:11:46.561Z,8.14
2023-04-13T06:14:37.328Z,8.14
2023-04-13T06:17:14.209Z,8.15
2023-04-13T06:20:00.316Z,8.21
2023-04-13T06:22:49.090Z,8.29
2023-04-13T06:25:36.220Z,8.37
2023-04-13T06:28:16.934Z,8.41
2023-04-13T06:31:14.889Z,8.50
2023-04-13T06:34:16.261Z,8.57
2023-04-13T06:37:00.596Z,8.63
2023-04-13T06:39:37.998Z,8.70
2023-04-13T06:42:27.384Z,8.80
2023-04-13T06:45:34.246Z,8.93
2023-04-13T06:48:19.924Z,9.05
2023-04-13T06:51:16.669Z,9.16
2023-04-13T06:53:53.650Z,9.29
2023-04-13T06:56:30.453Z,9.42
2023-04-13T06:59:12.929Z,9.54
2023-04-13T07:01:47.283Z,9.71
2023-04-13T07:04:21.089Z,9.82
2023-04-13T07:07:02.637Z,9.88
2023-04-13T07:09:56.696Z,9.92
2023-04-13T07:12:33.493Z,9.98
2023-04-13T07:15:11.939Z,10.04
2023-04-13T07:18:02.432Z,10.04
2023-04-13T07:20:43.779Z,10.03
2023-04-13T07:23:26.089Z,10.04
2023-04-13T07:26:13.309Z,10.03
2023-04-13T07:28:47.794Z,10.06
2023-04-13T07:31:25.850Z,10.15
2023-04-13T07:34:11.310Z,10.29
2023-04-13T07:36:56.904Z,10.39
2023-04-13T07:39:29.255Z,10.51
2023-04-13T07:42:05.936Z,10.63
2023-04-13T07:44:52.834Z,10.79
2023-04-13T07:47:29.122Z,10.89
2023-04-13T07:50:07.825Z,10.98
2023-04-13T07:52:42.346Z,11.05
2023-04-13T07:55:19.931Z,11.21
2023-04-13T07:57:56.090Z,11.40
2023-04-13T08:00:32.766Z,11.55
2023-04-13T08:03:07.786Z,11.67
2023-04-13T08:05:41.093Z,11.77
2023-04-13T08:08:13.355Z,11.89
2023-04-13T08:10:46.443Z,11.97
2023-04-13T08:13:18.768Z,12.01
2023-04-13T08:15:47.814Z,12.09
2023-04-13T08:18:22.532Z,12.18
2023-04-13T08:20:56.648Z,12.28
2023-04-13T08:23:29.222Z,12.42
2023-04-13T08:26:02.854Z,12.55
2023-04-13T08:28:37.041Z,12.63
2023-04-13T08:31:16.982Z,12.72
2023-04-13T08:33:55.925Z,12.83
2023-04-13T08:36:28.789Z,12.89
2023-04-13T08:39:10.367Z,12.88
2023-04-13T08:41:45.312Z,12.90
2023-04-13T08:44:15.109Z,12.92
2023-04-13T08:46:52.810Z,12.98
2023-04-13T08:49:36.036Z,13.06
2023-04-13T08:52:41.279Z,13.12
2023-04-13T08:55:20.722Z,13.15
2023-04-13T08:57:55.749Z,13.25
2023-04-13T09:00:33.956Z,13.31
2023-04-13T09:03:19.737Z,13.45
2023-04-13T09:06:05.451Z,13.58
2023-04-13T09:08:47.315Z,13.63
2023-04-13T09:11:22.345Z,13.63
2023-04-13T09:13:57.492Z,13.63
2023-04-13T09:16:33.250Z,13.65
2023-04-13T09:19:20.346Z,13.60
2023-04-13T09:21:51.695Z,13.64
2023-04-13T09:24:39.936Z,13.56
2023-04-13T09:27:21.630Z,13.52
2023-04-13T09:29:57.345Z,13.50
2023-04-13T09:32:29.008Z,13.37
2023-04-13T09:35:10.106Z,13.30
2023-04-13T09:37:46.169Z,13.19
2023-04-13T09:40:20.573Z,13.05
2023-04-13T09:43:09.956Z,13.01
2023-04-13T09:45:45.498Z,13.04
2023-04-13T09:48:25.861Z,12.98
2023-04-13T09:51:06.419Z,12.90
2023-04-13T09:53:49.761Z,12.83
2023-04-13T09:56:24.677Z,12.74
2023-04-13T09:59:05.550Z,12.68
2023-04-13T10:01:41.094Z,12.60
2023-04-13T10:04:24.344Z,12.43
2023-04-13T10:07:13.509Z,12.34
2023-04-13T10:09:56.644Z,12.23
2023-04-13T10:12:40.235Z,12.16
2023-04-13T10:15:58.680Z,12.11
2023-04-13T10:18:42.428Z,12.07
2023-04-13T10:21:21.144Z,12.04
2023-04-13T10:23:57.862Z,12.08
2023-04-13T10:26:39.328Z,12.11
2023-04-13T10:29:14.999Z,12.15
2023-04-13T10:32:06.484Z,12.13
2023-04-13T10:34:43.856Z,12.04
2023-04-13T10:37:32.810Z,11.98
2023-04-13T10:40:10.715Z,11.98
2023-04-13T10:42:53.407Z,11.93
2023-04-13T10:45:38.007Z,11.89
2023-04-13T10:48:22.437Z,11.83
2023-04-13T10:51:05.657Z,11.85
2023-04-13T10:53:45.792Z,11.84
2023-04-13T10:56:35.004Z,11.86
2023-04-13T10:59:20.301Z,11.86
2023-04-13T11:02:01.087Z,11.80
2023-04-13T11:04:49.564Z,11.71
2023-04-13T11:07:46.361Z,11.67
2023-04-13T11:10:32.308Z,11.65
2023-04-13T11:13:10.302Z,11.63
2023-04-13T11:15:55.062Z,11.62
2023-04-13T11:18:44.431Z,11.62
2023-04-13T11:21:21.132Z,11.65
2023-04-13T11:24:23.485Z,11.66
2023-04-13T11:27:16.433Z,11.62
2023-04-13T11:30:23.532Z,11.62
2023-04-13T11:33:04.025Z,11.62
2023-04-13T11:35:50.337Z,11.62
2023-04-13T11:38:32.665Z,11.66
2023-04-13T11:41:17.133Z,11.66
2023-04-13T11:44:10.490Z,11.65
2023-04-13T11:46:57.814Z,11.57
2023-04-13T11:49:48.052Z,11.45
2023-04-13T11:52:33.972Z,11.39
2023-04-13T11:55:25.672Z,11.33
2023-04-13T11:58:15.804Z,11.26
2023-04-13T12:01:19.369Z,11.23
2023-04-13T12:04:14.647Z,11.21
2023-04-13T12:07:20.792Z,11.21
2023-04-13T12:10:22.523Z,11.23
2023-04-13T12:13:35.819Z,11.26
2023-04-13T12:19:30.289Z,11.32
2023-04-13T12:22:23.896Z,11.41
2023-04-13T12:25:35.103Z,11.44
2023-04-13T12:28:15.483Z,11.49
2023-04-13T12:30:55.114Z,11.50
2023-04-13T12:33:37.865Z,11.53
2023-04-13T12:36:31.415Z,11.58
2023-04-13T12:39:34.118Z,11.64
2023-04-13T12:42:17.817Z,11.65
2023-04-13T12:45:21.315Z,11.71
2023-04-13T12:48:10.430Z,11.72
2023-04-13T12:50:59.332Z,11.77
2023-04-13T12:53:52.601Z,11.81
2023-04-13T12:56:46.888Z,11.87
2023-04-13T12:59:35.882Z,11.93
2023-04-13T13:02:24.170Z,11.95
2023-04-13T13:05:16.839Z,12.00
2023-04-13T13:08:07.227Z,12.02
2023-04-13T13:10:58.741Z,12.01
2023-04-13T13:13:48.529Z,12.00
2023-04-13T13:16:44.790Z,11.97
2023-04-13T13:19:27.861Z,11.93
2023-04-13T13:22:30.757Z,11.90
2023-04-13T13:25:35.530Z,11.89
2023-04-13T13:28:22.806Z,11.87
2023-04-13T13:31:19.934Z,11.84
2023-04-13T13:34:01.751Z,11.82
2023-04-13T13:36:51.338Z,11.81
2023-04-13T13:39:47.250Z,11.78
2023-04-13T13:42:50.095Z,11.72
2023-04-13T13:45:34.379Z,11.63
2023-04-13T13:48:22.214Z,11.52
2023-04-13T13:51:25.818Z,11.43
2023-04-13T13:54:22.914Z,11.34
2023-04-13T13:57:12.132Z,11.32
2023-04-13T14:00:16.253Z,11.29
2023-04-13T14:03:14.339Z,11.26
2023-04-13T14:06:36.115Z,11.17
2023-04-13T14:09:53.624Z,11.04
2023-04-13T14:13:32.199Z,10.90
2023-04-13T14:17:11.272Z,10.80
2023-04-13T14:20:59.477Z,10.67
2023-04-13T14:24:48.611Z,10.57
2023-04-13T14:28:31.929Z,10.46
2023-04-13T14:32:09.594Z,10.38
2023-04-13T14:35:58.664Z,10.30
2023-04-13T14:39:47.731Z,10.18
2023-04-13T14:43:36.821Z,10.06
2023-04-13T14:47:17.748Z,9.96
2023-04-13T14:51:03.865Z,9.82
2023-04-13T14:54:45.163Z,9.69
2023-04-13T14:58:25.743Z,9.57
2023-04-13T15:02:07.757Z,9.49
2023-04-13T15:05:33.383Z,9.40
2023-04-13T15:09:22.534Z,9.32
2023-04-13T15:12:50.689Z,9.29
2023-04-13T15:16:16.419Z,9.26
2023-04-13T15:19:46.528Z,9.21
2023-04-13T15:23:12.355Z,9.20
2023-04-13T15:26:56.347Z,9.19
2023-04-13T15:30:04.475Z,9.17
2023-04-13T15:33:53.581Z,9.17
2023-04-13T15:37:24.558Z,9.13
2023-04-13T15:41:03.776Z,9.09
2023-04-13T15:44:35.630Z,9.06
2023-04-13T15:48:09.544Z,9.06
2023-04-13T15:52:01.576Z,9.07
2023-04-13T15:55:24.841Z,9.05
2023-04-13T15:59:14.006Z,9.04
2023-04-13T16:03:03.473Z,9.02
2023-04-13T16:07:05.068Z,9.00
2023-04-13T16:10:48.057Z,8.97
2023-04-13T16:14:30.508Z,8.92
2023-04-13T16:18:12.089Z,8.89
2023-04-13T16:22:01.270Z,8.86
2023-04-13T16:25:50.421Z,8.83
2023-04-13T16:29:33.543Z,8.80
2023-04-13T16:33:15.652Z,8.77
2023-04-13T16:37:04.896Z,8.73
2023-04-13T16:40:52.965Z,8.70
2023-04-13T16:44:20.843Z,8.70
2023-04-13T16:47:53.849Z,8.66
2023-04-13T16:51:43.008Z,8.61
2023-04-13T16:55:31.419Z,8.57
2023-04-13T16:59:20.827Z,8.55
2023-04-13T17:03:06.992Z,8.50
2023-04-13T17:06:42.370Z,8.45
2023-04-13T17:10:10.848Z,8.42
2023-04-13T17:13:53.037Z,8.41
2023-04-13T17:17:30.792Z,8.41
2023-04-13T17:21:11.028Z,8.39
2023-04-13T17:25:00.173Z,8.33
2023-04-13T17:28:39.354Z,8.31
2023-04-13T17:32:28.205Z,8.30
2023-04-13T17:36:16.289Z,8.26
2023-04-13T17:40:08.496Z,8.23
2023-04-13T17:43:46.618Z,8.21
2023-04-13T17:47:22.268Z,8.16
2023-04-13T17:50:50.102Z,8.12
2023-04-13T17:54:21.076Z,8.10
2023-04-13T17:57:41.770Z,8.09
2023-04-13T18:01:15.523Z,8.06
2023-04-13T18:05:03.934Z,8.05
2023-04-13T18:08:33.606Z,8.03
2023-04-13T18:12:22.681Z,8.01
2023-04-13T18:15:56.696Z,7.99
2023-04-13T18:19:37.832Z,7.98
2023-04-13T18:23:26.952Z,7.97
2023-04-13T18:27:16.037Z,7.96
2023-04-13T18:30:58.490Z,7.95
2023-04-13T18:34:36.267Z,7.94
2023-04-13T18:38:12.849Z,7.91
2023-04-13T18:41:39.046Z,7.89
2023-04-13T18:45:29.583Z,7.86
2023-04-13T18:49:11.787Z,7.83
2023-04-13T18:52:57.390Z,7.80
2023-04-13T18:56:31.907Z,7.77
2023-04-13T19:00:21.000Z,7.75
2023-04-13T19:04:10.216Z,7.73
2023-04-13T19:07:52.521Z,7.73
2023-04-13T19:11:28.424Z,7.70
2023-04-13T19:15:10.584Z,7.69
2023-04-13T19:18:59.374Z,7.68
2023-04-13T19:22:32.267Z,7.66
2023-04-13T19:26:21.271Z,7.64
2023-04-13T19:29:49.731Z,7.60
2023-04-13T19:33:38.886Z,7.60
2023-04-13T19:37:14.742Z,7.60
2023-04-13T19:40:48.966Z,7.60
2023-04-13T19:44:31.169Z,7.59
2023-04-13T19:48:17.170Z,7.57
2023-04-13T19:52:06.281Z,7.54
2023-04-13T19:55:37.919Z,7.51
2023-04-13T19:59:27.135Z,7.46
2023-04-13T20:03:03.190Z,7.39
2023-04-13T20:06:52.711Z,7.35
2023-04-13T20:10:42.082Z,7.31
2023-04-13T20:14:30.332Z,7.26
2023-04-13T20:18:19.626Z,7.24
2023-04-13T20:22:08.783Z,7.25
2023-04-13T20:25:57.896Z,7.24
2023-04-13T20:29:46.984Z,7.24
2023-04-13T20:33:36.056Z,7.25
2023-04-13T20:37:25.279Z,7.26
2023-04-13T20:41:14.357Z,7.29
2023-04-13T20:45:03.484Z,7.32
2023-04-13T20:48:52.405Z,7.36
2023-04-13T20:52:41.569Z,7.38
2023-04-13T20:56:30.681Z,7.41
2023-04-13T21:00:18.130Z,7.45
2023-04-13T21:04:00.240Z,7.46
2023-04-13T21:07:53.069Z,7.44
2023-04-13T21:11:41.677Z,7.45
2023-04-13T21:15:30.939Z,7.46
2023-04-13T21:19:13.002Z,7.43
2023-04-13T21:23:00.867Z,7.41
2023-04-13T21:26:50.127Z,7.37
2023-04-13T21:30:24.859Z,7.38
2023-04-13T21:34:14.234Z,7.40
2023-04-13T21:37:54.290Z,7.39
2023-04-13T21:41:37.521Z,7.40
2023-04-13T21:45:24.255Z,7.42
2023-04-13T21:49:06.416Z,7.43
2023-04-13T21:52:39.719Z,7.43
2023-04-13T21:56:28.537Z,7.42
2023-04-13T22:00:17.597Z,7.42
2023-04-13T22:03:46.541Z,7.42
2023-04-13T22:07:42.283Z,7.39
2023-04-13T22:11:15.703Z,7.37
2023-04-13T22:14:57.360Z,7.36
2023-04-13T22:18:45.441Z,7.34
2023-04-13T22:22:22.321Z,7.34
2023-04-13T22:26:11.418Z,7.37
2023-04-13T22:29:40.346Z,7.39
2023-04-13T22:33:19.926Z,7.37
2023-04-13T22:37:08.567Z,7.36
2023-04-13T22:40:42.288Z,7.37
2023-04-13T22:44:25.448Z,7.39
2023-04-13T22:48:04.835Z,7.42
2023-04-13T22:51:54.132Z,7.40
2023-04-13T22:55:36.303Z,7.40
2023-04-13T22:59:25.216Z,7.37
2023-04-13T23:03:06.910Z,7.36
2023-04-13T23:06:59.038Z,7.32
2023-04-13T23:10:32.614Z,7.29
2023-04-13T23:14:06.582Z,7.28
2023-04-13T23:17:40.518Z,7.29
2023-04-13T23:21:29.759Z,7.27
2023-04-13T23:25:01.407Z,7.25
2023-04-13T23:28:49.475Z,7.22
2023-04-13T23:32:24.395Z,7.19
2023-04-13T23:36:07.922Z,7.17
2023-04-13T23:39:57.046Z,7.16
2023-04-13T23:43:37.700Z,7.14
2023-04-13T23:47:19.583Z,7.11
2023-04-13T23:51:08.837Z,7.09
2023-04-13T23:54:44.690Z,7.07
2023-04-13T23:58:36.642Z,7.08
